Portada
METAR-TAF:

METAR-TAF

Aeropuertos :

Aeropuerto Internacional Don Mueang

Bangkok, Tailandia

latitud: 13-54-45N, longitud: 100-36-24E, altitud: 4 m

Observación

El informe se hizo hace 20 minutos, a las 13:30 UTC
Viento 5 kt del noroeste, variando entre oeste y norte
Temperatura 25°C
Humedad 74%
Presión 1013 hPa
Visibilidad: 9000 m
Escasas nubes a una altura de 3000 ft

METAR: VTBD 181330Z 32005KT 270V360 9000 FEW030 25/20 Q1013 NOSIG

Hora: 20:50 (13:50 UTC)

Pronóstico

El informe se hizo hace 2 horas y 50 minutos, a las 11:00 UTC
Pronóstico válido del 18 a las 12 UTC al 19 a las 18 UTC
Viento 8 kt del norte
Visibilidad: 9000 m
Escasas nubes a una altura de 3000 ft
Evolucionando progresivamente
del 19 a las 02 UTC al 19 a las 04 UTC
Viento 8 kt del este-noreste

TAF: VTBD 181100Z 1812/1918 35008KT 9000 FEW030 BECMG 1902/1904 06008KT

Observaciones y pronósticos meteorológicos de más de 4000 aeropuertos (mensajes METAR y TAF).

Los puntos amarillos y rojos representan las estaciones disponibles.

Ponga el ratón en el punto deseado para ver el nombre de la estación.

Haga clic para ver las observaciones y los pronósticos meteorológicos.

Para cambiar el mapa : haga clic en los botones verdes con una cruz de color negro para hacer un zoom, en el botón verde con un guión para alejar o en las flechas verdes para mapas adyacentes.


METAR-TAF: